Time;durP1;ratioP1;P1;durP2;ratioP2;P2;SDS_P1;SDS_P2;PMS_P1;PMS_P2;Temp;Humidity;BMP_temperature;BMP_pressure;BME280_temperature;BME280_humidity;BME280_pressure;Samples;Min_cycle;Max_cycle;Signal;HPM_P1;HPM_P2
2022/01/14 00:01:04;;;;;;;23.60;14.63;;;;;;;0.81;54.41;95871.72;5091592;28;20194;-77
2022/01/14 00:03:31;;;;;;;22.53;13.83;;;;;;;0.97;54.19;95895.53;5090899;28;20554;-76
2022/01/14 00:05:58;;;;;;;20.03;12.73;;;;;;;1.09;53.97;95904.38;5091577;28;20561;-76
2022/01/14 00:08:26;;;;;;;21.20;13.27;;;;;;;1.09;54.07;95900.16;5091417;28;20186;-76
2022/01/14 00:10:53;;;;;;;22.67;14.50;;;;;;;1.09;54.32;95901.88;5090591;28;20666;-75
2022/01/14 00:16:01;;;;;;;22.47;14.50;;;;;;;1.07;53.84;95896.03;5090591;28;20278;-76
2022/01/14 00:18:28;;;;;;;25.23;13.50;;;;;;;1.14;54.13;95915.13;5089338;28;20186;-74
2022/01/14 00:20:55;;;;;;;23.10;14.63;;;;;;;1.15;54.11;95915.06;5090939;28;20611;-76
2022/01/14 00:23:27;;;;;;;21.40;14.33;;;;;;;1.18;53.92;95914.16;5090522;28;20302;-75
2022/01/14 00:31:42;;;;;;;23.50;13.87;;;;;;;1.18;53.82;95920.00;5090603;28;20197;-74
2022/01/14 00:34:10;;;;;;;22.53;14.33;;;;;;;1.20;53.81;95928.31;5090596;28;20216;-76
2022/01/14 00:36:36;;;;;;;22.17;13.30;;;;;;;1.22;53.76;95928.31;5090104;28;20665;-76
2022/01/14 00:39:04;;;;;;;21.77;13.47;;;;;;;1.24;53.88;95931.56;5090989;28;20612;-74
2022/01/14 00:41:32;;;;;;;21.43;12.73;;;;;;;1.25;54.03;95936.59;5090093;28;20661;-74
2022/01/14 00:44:01;;;;;;;20.57;13.57;;;;;;;1.27;53.62;95925.63;5089060;28;20570;-73
2022/01/14 00:46:28;;;;;;;23.77;13.53;;;;;;;1.28;53.86;95927.25;5090284;28;20199;-73
2022/01/14 00:48:56;;;;;;;23.67;14.10;;;;;;;1.28;53.62;95935.63;5090868;28;20186;-76
2022/01/14 00:51:23;;;;;;;23.67;14.47;;;;;;;1.32;53.52;95931.31;5091001;28;20277;-73
2022/01/14 00:53:50;;;;;;;18.90;12.77;;;;;;;1.32;53.75;95934.66;5090254;28;20220;-75
2022/01/14 00:56:30;;;;;;;23.93;13.67;;;;;;;1.34;53.46;95937.97;5090976;28;20188;-75
2022/01/14 00:59:17;;;;;;;19.47;13.17;;;;;;;1.35;53.68;95944.66;5090948;28;20612;-74
2022/01/14 01:01:45;;;;;;;24.27;13.10;;;;;;;1.35;53.50;95944.66;5091220;28;20302;-74
2022/01/14 01:04:13;;;;;;;20.67;13.10;;;;;;;1.37;53.30;95937.03;5091549;28;20204;-74
2022/01/14 01:06:40;;;;;;;23.90;13.83;;;;;;;1.39;53.45;95937.81;5090722;28;20708;-74
2022/01/14 01:09:11;;;;;;;20.30;13.47;;;;;;;1.39;53.22;95935.28;5092183;28;20185;-74
2022/01/14 01:11:42;;;;;;;20.80;12.80;;;;;;;1.40;53.49;95932.72;5093968;28;20623;-73
2022/01/14 01:14:14;;;;;;;21.30;13.17;;;;;;;1.34;53.42;95905.22;5093341;28;20220;-73
2022/01/14 01:16:41;;;;;;;25.20;13.63;;;;;;;1.39;53.10;95902.53;5092134;28;20239;-76
2022/01/14 01:19:08;;;;;;;21.67;13.30;;;;;;;1.32;53.18;95885.97;5090563;28;20192;-73
2022/01/14 01:21:35;;;;;;;22.47;12.73;;;;;;;1.41;52.97;95900.78;5090432;28;20189;-75
2022/01/14 01:24:02;;;;;;;21.23;12.00;;;;;;;1.33;53.08;95885.91;5090076;28;20589;-75
2022/01/14 01:26:32;;;;;;;22.87;11.83;;;;;;;1.48;52.87;95892.94;5090741;28;20201;-75
2022/01/14 01:29:17;;;;;;;22.37;13.17;;;;;;;1.42;52.76;95875.50;5090063;28;20186;-72
2022/01/14 01:31:45;;;;;;;19.67;11.83;;;;;;;1.52;52.77;95887.81;5089776;28;20192;-74
2022/01/14 01:34:15;;;;;;;18.50;12.03;;;;;;;1.52;52.47;95890.34;5088870;28;20650;-74
2022/01/14 01:36:43;;;;;;;20.00;12.10;;;;;;;1.52;52.58;95891.16;5090481;28;20563;-72
2022/01/14 01:39:14;;;;;;;20.77;11.90;;;;;;;1.54;52.43;95891.91;5091416;28;20185;-77
2022/01/14 01:41:46;;;;;;;20.63;12.90;;;;;;;1.48;52.63;95880.34;5092687;28;20182;-76
2022/01/14 01:44:14;;;;;;;18.17;12.37;;;;;;;1.58;52.16;95883.38;5091708;28;20186;-75
2022/01/14 01:46:43;;;;;;;18.53;11.20;;;;;;;1.60;52.53;95879.09;5091621;28;20185;-75
2022/01/14 01:49:12;;;;;;;23.13;12.37;;;;;;;1.62;52.24;95881.56;5092623;28;20707;-75
2022/01/14 01:51:39;;;;;;;24.97;13.43;;;;;;;1.47;52.14;95861.06;5089967;28;20190;-74
2022/01/14 01:54:07;;;;;;;20.40;12.80;;;;;;;1.42;52.28;95850.31;5089917;28;20217;-75
2022/01/14 01:56:34;;;;;;;19.50;11.43;;;;;;;1.64;52.04;95878.13;5089895;28;20630;-75
2022/01/14 01:59:01;;;;;;;22.97;11.97;;;;;;;1.65;51.97;95873.91;5090359;28;20182;-75
2022/01/14 02:01:27;;;;;;;22.87;12.30;;;;;;;1.63;52.04;95871.41;5093598;28;20201;-74
2022/01/14 02:03:56;;;;;;;22.27;13.00;;;;;;;1.63;52.22;95873.94;5093759;28;20193;-74
2022/01/14 02:06:24;;;;;;;17.23;11.63;;;;;;;1.64;52.04;95867.19;5093787;28;20185;-75
2022/01/14 02:08:52;;;;;;;18.17;11.87;;;;;;;1.58;51.97;95850.59;5094117;28;20186;-76
2022/01/14 02:11:19;;;;;;;21.93;12.83;;;;;;;1.65;51.97;95851.22;5094037;28;20190;-77
2022/01/14 02:13:48;;;;;;;21.27;13.30;;;;;;;1.64;52.26;95840.31;5093424;28;20581;-75
2022/01/14 02:16:32;;;;;;;18.43;12.10;;;;;;;1.54;52.22;95818.81;5093354;28;20674;-76
2022/01/14 02:19:16;;;;;;;21.60;12.70;;;;;;;1.65;52.31;95833.56;5093631;28;20196;-73
2022/01/14 02:24:55;;;;;;;23.07;12.93;;;;;;;1.63;51.92;95823.50;5102956;28;20189;-77
2022/01/14 02:27:23;;;;;;;24.87;13.93;;;;;;;1.63;51.97;95820.16;5106201;28;20190;-76
2022/01/14 02:29:50;;;;;;;24.67;12.83;;;;;;;1.63;52.09;95823.50;5076303;28;20200;-75
2022/01/14 02:32:17;;;;;;;24.67;12.83;;;;;;;1.58;52.18;95814.47;5092189;28;20193;-74
2022/01/14 02:34:46;;;;;;;25.43;13.83;;;;;;;1.62;52.03;95823.56;5092791;28;20287;-74
2022/01/14 02:37:19;;;;;;;20.80;13.07;;;;;;;1.55;52.20;95814.59;5092277;28;20208;-76
2022/01/14 02:39:47;;;;;;;24.87;14.20;;;;;;;1.61;51.98;95817.72;5092673;28;20554;-75
2022/01/14 02:42:14;;;;;;;23.50;13.73;;;;;;;1.60;52.09;95816.06;5091398;28;20197;-76
2022/01/14 02:44:41;;;;;;;23.50;14.53;;;;;;;1.54;52.09;95801.16;5092717;28;20246;-75
2022/01/14 02:47:08;;;;;;;22.30;13.87;;;;;;;1.60;52.07;95812.72;5092536;28;20186;-75
2022/01/14 02:49:37;;;;;;;21.57;13.17;;;;;;;1.60;52.08;95805.16;5093172;28;20181;-77
2022/01/14 02:52:08;;;;;;;19.93;13.77;;;;;;;1.59;52.26;95813.59;5093257;28;20178;-75
2022/01/14 02:54:51;;;;;;;23.23;13.73;;;;;;;1.59;51.95;95811.88;5092830;28;20232;-75
2022/01/14 02:57:19;;;;;;;20.83;13.23;;;;;;;1.61;52.04;95816.91;5092471;28;20188;-76
2022/01/14 02:59:47;;;;;;;25.20;12.77;;;;;;;1.51;52.23;95803.78;5092834;28;20190;-75
2022/01/14 03:02:14;;;;;;;22.87;13.77;;;;;;;1.59;52.12;95804.31;5092226;28;20201;-73
2022/01/14 03:04:42;;;;;;;26.77;13.07;;;;;;;1.59;51.97;95794.25;5092560;28;20182;-76
2022/01/14 03:07:10;;;;;;;22.57;12.53;;;;;;;1.58;52.21;95784.22;5092593;28;20190;-76
2022/01/14 03:09:39;;;;;;;21.87;13.50;;;;;;;1.61;52.06;95794.22;5092156;28;20194;-74
2022/01/14 03:12:06;;;;;;;24.40;12.47;;;;;;;1.53;51.77;95773.50;5092596;28;20193;-74
2022/01/14 03:14:33;;;;;;;23.60;13.93;;;;;;;1.61;51.79;95774.84;5092320;28;20241;-76
2022/01/14 03:17:01;;;;;;;23.03;12.93;;;;;;;1.62;51.85;95781.53;5092638;28;20197;-75
2022/01/14 03:19:28;;;;;;;23.60;14.07;;;;;;;1.57;51.83;95762.44;5092696;28;20195;-77
2022/01/14 03:22:06;;;;;;;21.07;12.83;;;;;;;1.60;51.79;95767.34;5092934;28;20221;-75
2022/01/14 03:27:19;;;;;;;22.50;14.33;;;;;;;1.59;51.99;95755.63;5110020;28;20233;-74
2022/01/14 03:29:46;;;;;;;22.57;13.37;;;;;;;1.60;52.10;95755.56;5102478;28;20181;-75
2022/01/14 03:32:13;;;;;;;21.50;13.10;;;;;;;1.60;51.72;95749.69;5106522;28;20194;-73
2022/01/14 03:34:40;;;;;;;24.20;13.23;;;;;;;1.59;51.73;95740.50;5096481;28;20212;-76
2022/01/14 03:37:07;;;;;;;18.83;12.43;;;;;;;1.61;51.61;95751.34;5092415;28;20188;-75
2022/01/14 03:39:34;;;;;;;17.00;11.57;;;;;;;1.60;51.54;95742.97;5091299;28;20184;-75
2022/01/14 03:42:01;;;;;;;22.87;11.73;;;;;;;1.61;51.43;95741.28;5091759;28;20200;-74
2022/01/14 03:44:29;;;;;;;18.97;11.53;;;;;;;1.64;51.45;95733.56;5091587;28;20186;-74
2022/01/14 03:46:56;;;;;;;20.53;12.63;;;;;;;1.65;51.13;95727.66;5091510;28;20670;-74
2022/01/14 03:49:22;;;;;;;16.50;10.87;;;;;;;1.61;50.96;95711.84;5091777;28;20181;-76
2022/01/14 03:51:49;;;;;;;21.60;12.00;;;;;;;1.69;51.05;95730.00;5091551;28;20193;-74
2022/01/14 03:54:16;;;;;;;17.37;10.90;;;;;;;1.52;50.65;95701.28;5091644;28;20213;-76
2022/01/14 03:56:43;;;;;;;18.83;11.50;;;;;;;1.73;50.76;95733.25;5091317;28;20645;-76
2022/01/14 03:59:09;;;;;;;17.33;11.80;;;;;;;1.74;51.02;95738.22;5091402;28;20189;-73
2022/01/14 04:01:38;;;;;;;20.87;11.57;;;;;;;1.45;50.77;95691.41;5091433;28;20200;-75
2022/01/14 04:04:05;;;;;;;16.90;11.67;;;;;;;1.74;50.94;95733.16;5091313;28;20190;-73
2022/01/14 04:06:31;;;;;;;19.20;12.70;;;;;;;1.69;50.85;95727.50;5091359;28;20185;-76
2022/01/14 04:08:58;;;;;;;19.13;11.63;;;;;;;1.53;50.94;95707.97;5091532;28;20232;-75
2022/01/14 04:11:25;;;;;;;25.37;11.93;;;;;;;1.73;50.61;95741.63;5091087;28;20646;-74
2022/01/14 04:13:55;;;;;;;19.27;12.23;;;;;;;1.74;50.55;95735.69;5091336;28;20185;-75
2022/01/14 04:16:24;;;;;;;16.23;11.67;;;;;;;1.74;50.80;95725.59;5090672;28;20262;-75
2022/01/14 04:18:53;;;;;;;24.77;12.27;;;;;;;1.72;50.67;95717.28;5090899;28;20199;-75
2022/01/14 04:21:20;;;;;;;22.40;12.33;;;;;;;1.64;50.79;95696.59;5090601;28;20186;-76
2022/01/14 04:23:47;;;;;;;19.17;11.73;;;;;;;1.72;50.67;95707.19;5091028;28;20305;-75
2022/01/14 04:26:15;;;;;;;19.70;12.83;;;;;;;1.71;50.63;95704.72;5091268;28;20197;-75
2022/01/14 04:28:41;;;;;;;19.70;12.07;;;;;;;1.75;50.53;95708.78;5091074;28;20193;-77
2022/01/14 04:31:09;;;;;;;17.13;12.27;;;;;;;1.73;50.70;95713.06;5090456;28;20182;-74
2022/01/14 04:33:37;;;;;;;17.40;11.57;;;;;;;1.75;50.64;95712.13;5090919;28;20213;-75
2022/01/14 04:36:05;;;;;;;20.07;12.13;;;;;;;1.75;50.69;95711.28;5090763;28;20216;-75
2022/01/14 04:38:33;;;;;;;19.87;12.23;;;;;;;1.75;50.73;95707.06;5091133;28;20186;-73
2022/01/14 04:41:00;;;;;;;20.70;13.17;;;;;;;1.76;50.72;95710.41;5090391;28;20631;-76
2022/01/14 04:43:29;;;;;;;19.57;12.67;;;;;;;1.75;50.85;95719.69;5090574;28;20193;-75
2022/01/14 04:46:13;;;;;;;20.87;13.33;;;;;;;1.67;50.91;95701.50;5090594;28;20185;-77
2022/01/14 04:48:40;;;;;;;19.80;11.80;;;;;;;1.74;50.92;95702.09;5090680;28;20263;-75
2022/01/14 04:51:11;;;;;;;18.70;13.03;;;;;;;1.74;50.85;95710.47;5090129;28;20189;-75
2022/01/14 04:53:38;;;;;;;23.87;14.63;;;;;;;1.73;50.76;95710.56;5090970;28;20264;-74
2022/01/14 04:56:05;;;;;;;24.07;12.50;;;;;;;1.67;51.11;95701.50;5090412;28;20220;-74
2022/01/14 04:58:33;;;;;;;25.83;14.40;;;;;;;1.75;50.88;95703.72;5090424;28;20193;-75
2022/01/14 05:01:00;;;;;;;21.67;13.37;;;;;;;1.43;50.81;95657.91;5090135;28;20182;-76
2022/01/14 05:03:27;;;;;;;21.73;13.83;;;;;;;1.72;50.99;95704.66;5090056;28;20685;-76
2022/01/14 05:05:57;;;;;;;18.97;13.27;;;;;;;1.72;50.99;95702.13;5090467;28;20189;-75
2022/01/14 05:08:34;;;;;;;23.00;13.03;;;;;;;1.74;51.00;95699.56;5090456;28;20182;-73
2022/01/14 05:11:14;;;;;;;22.07;12.53;;;;;;;1.69;51.11;95682.09;5090574;28;20272;-76
2022/01/14 05:13:42;;;;;;;22.87;14.03;;;;;;;1.65;51.42;95669.69;5090409;28;20187;-74
2022/01/14 05:16:08;;;;;;;23.03;14.27;;;;;;;1.53;51.19;95655.03;5090162;28;20213;-74
2022/01/14 05:18:37;;;;;;;27.07;15.20;;;;;;;1.74;51.02;95697.06;5090117;28;20201;-75
2022/01/14 05:21:05;;;;;;;24.03;15.13;;;;;;;1.76;50.96;95690.25;5090420;28;20189;-76
2022/01/14 05:23:33;;;;;;;26.00;15.50;;;;;;;1.74;51.10;95690.31;5090536;28;20693;-74
2022/01/14 05:26:00;;;;;;;27.40;14.70;;;;;;;1.76;50.95;95705.38;5090155;28;20562;-74
2022/01/14 05:28:27;;;;;;;22.93;15.47;;;;;;;1.75;51.06;95714.63;5089637;28;20200;-74
2022/01/14 05:30:54;;;;;;;27.57;16.03;;;;;;;1.75;51.08;95711.28;5090325;28;20190;-75
2022/01/14 05:33:20;;;;;;;30.73;17.23;;;;;;;1.74;51.07;95715.53;5089913;28;20214;-75
2022/01/14 05:35:47;;;;;;;30.33;17.70;;;;;;;1.73;51.03;95715.59;5093816;28;20685;-75
2022/01/14 05:38:14;;;;;;;26.70;16.00;;;;;;;1.72;51.04;95716.44;5094602;28;20186;-75
2022/01/14 05:40:42;;;;;;;27.53;15.30;;;;;;;1.70;51.07;95706.44;5094527;28;20659;-74
2022/01/14 05:43:09;;;;;;;28.93;17.37;;;;;;;1.68;51.27;95703.13;5094023;28;20186;-75
2022/01/14 05:45:36;;;;;;;23.20;15.53;;;;;;;1.29;51.17;95639.94;5094449;28;20566;-74
2022/01/14 05:48:03;;;;;;;25.63;16.53;;;;;;;1.67;51.13;95700.69;5094056;28;20250;-74
2022/01/14 05:50:30;;;;;;;29.83;16.00;;;;;;;1.66;51.08;95696.53;5094064;28;20182;-74
2022/01/14 05:52:56;;;;;;;31.67;16.87;;;;;;;1.66;51.25;95687.25;5111978;28;20184;-75
2022/01/14 05:55:23;;;;;;;27.63;16.27;;;;;;;1.69;51.03;95691.38;5114253;28;20225;-74
2022/01/14 05:57:52;;;;;;;23.40;14.97;;;;;;;1.70;51.18;95685.44;5114056;28;20664;-74
2022/01/14 06:00:21;;;;;;;28.20;15.77;;;;;;;1.78;51.11;95687.69;5114011;28;20657;-75
2022/01/14 06:02:49;;;;;;;27.87;16.57;;;;;;;1.82;50.92;95684.16;5114637;28;20185;-76
2022/01/14 06:05:16;;;;;;;26.17;15.77;;;;;;;1.87;51.06;95675.53;5114164;28;20181;-74
2022/01/14 06:07:43;;;;;;;23.33;15.03;;;;;;;1.93;50.83;95682.81;5113221;28;20237;-73
2022/01/14 06:10:11;;;;;;;21.87;14.97;;;;;;;1.99;50.97;95679.25;5104908;28;20178;-74
2022/01/14 06:12:39;;;;;;;27.90;14.43;;;;;;;2.04;50.81;95674.84;5101987;28;20931;-74
2022/01/14 06:15:08;;;;;;;23.03;13.53;;;;;;;2.10;50.82;95673.78;5104706;28;20221;-74
2022/01/14 06:17:35;;;;;;;23.43;14.23;;;;;;;2.16;50.88;95676.88;5108096;28;20185;-76
2022/01/14 06:20:03;;;;;;;24.03;14.00;;;;;;;2.10;50.95;95664.50;5104242;28;20182;-73
2022/01/14 06:22:30;;;;;;;22.53;13.20;;;;;;;1.80;50.74;95598.47;5100292;28;20620;-76
2022/01/14 06:24:58;;;;;;;24.83;13.90;;;;;;;2.28;50.69;95673.00;5096611;28;20209;-77
2022/01/14 06:27:25;;;;;;;22.70;13.77;;;;;;;1.87;51.00;95597.34;5104510;28;20217;-78
2022/01/14 06:29:52;;;;;;;23.43;14.60;;;;;;;2.37;50.77;95667.56;5101566;28;20181;-75
2022/01/14 06:32:20;;;;;;;20.63;13.33;;;;;;;2.42;50.60;95668.22;5100172;28;20194;-76
2022/01/14 06:34:47;;;;;;;21.10;14.13;;;;;;;2.41;50.59;95668.28;5101123;28;20268;-77
2022/01/14 06:37:14;;;;;;;25.00;15.77;;;;;;;2.45;50.55;95657.97;5102623;28;20182;-76
2022/01/14 06:39:40;;;;;;;20.80;13.43;;;;;;;2.49;50.59;95654.44;5105817;28;20185;-76
2022/01/14 06:42:08;;;;;;;22.80;14.53;;;;;;;2.50;50.77;95645.16;5098339;28;20181;-76
2022/01/14 06:44:35;;;;;;;24.53;14.47;;;;;;;2.65;50.42;95664.72;5099862;28;20201;-75
2022/01/14 06:47:01;;;;;;;22.20;13.40;;;;;;;2.52;50.62;95645.94;5101567;28;20184;-77
2022/01/14 06:49:30;;;;;;;25.53;14.83;;;;;;;2.72;50.54;95658.53;5110924;28;20197;-78
2022/01/14 06:51:57;;;;;;;26.43;14.73;;;;;;;2.56;50.41;95628.94;5102860;28;20188;-76
2022/01/14 06:54:23;;;;;;;23.20;15.53;;;;;;;2.85;50.63;95657.97;5096149;28;20192;-73
2022/01/14 06:56:50;;;;;;;26.23;15.47;;;;;;;2.91;50.58;95653.47;5089861;28;20224;-79
2022/01/14 06:59:17;;;;;;;25.47;13.93;;;;;;;2.97;50.63;95640.56;5090256;28;20194;-77
2022/01/14 07:01:44;;;;;;;32.20;15.40;;;;;;;3.05;50.61;95644.47;5089425;28;20194;-75
2022/01/14 07:04:11;;;;;;;27.07;15.03;;;;;;;3.11;50.84;95634.06;5089819;28;20765;-74
2022/01/14 07:06:39;;;;;;;24.03;15.40;;;;;;;3.19;50.80;95637.88;5088863;28;20190;-75
2022/01/14 07:09:06;;;;;;;26.33;14.50;;;;;;;3.27;50.75;95633.31;5089113;28;20186;-75
2022/01/14 07:11:36;;;;;;;23.73;14.40;;;;;;;3.35;50.89;95629.63;5089106;28;20186;-75
2022/01/14 07:14:04;;;;;;;21.33;13.70;;;;;;;3.40;51.08;95615.03;5089854;28;20582;-78
2022/01/14 07:16:32;;;;;;;23.53;13.93;;;;;;;3.46;51.22;95609.72;5088989;28;20724;-74
2022/01/14 07:18:59;;;;;;;22.20;13.67;;;;;;;3.62;51.26;95604.72;5089550;28;20194;-74
2022/01/14 07:21:26;;;;;;;24.17;14.50;;;;;;;3.70;51.25;95606.00;5089850;28;20263;-75
2022/01/14 07:23:54;;;;;;;21.30;13.57;;;;;;;3.76;51.74;95604.91;5088781;28;20605;-76
2022/01/14 07:26:21;;;;;;;22.07;13.07;;;;;;;3.90;51.69;95609.28;5088979;28;20689;-76
2022/01/14 07:28:48;;;;;;;21.87;12.13;;;;;;;4.00;52.08;95610.47;5092162;28;20190;-77
2022/01/14 07:31:15;;;;;;;22.50;12.70;;;;;;;4.07;52.29;95603.41;5111722;28;20189;-78
2022/01/14 07:33:42;;;;;;;18.70;11.37;;;;;;;4.06;52.62;95584.88;5112184;28;20188;-76
2022/01/14 07:36:09;;;;;;;15.97;10.90;;;;;;;4.31;52.92;95606.41;5113657;28;20729;-76
2022/01/14 07:38:36;;;;;;;15.93;10.10;;;;;;;4.41;53.13;95603.34;5111298;28;20192;-79
2022/01/14 07:41:04;;;;;;;14.03;10.27;;;;;;;4.52;53.43;95588.41;5111926;28;20616;-75
2022/01/14 07:43:31;;;;;;;11.33;9.33;;;;;;;4.63;53.56;95592.94;5111637;28;20192;-74
2022/01/14 07:45:58;;;;;;;15.20;9.33;;;;;;;4.71;53.70;95593.38;5111588;28;20192;-77
2022/01/14 07:48:24;;;;;;;15.77;9.37;;;;;;;4.76;53.88;95590.59;5112046;28;20193;-74
2022/01/14 07:50:51;;;;;;;12.87;8.47;;;;;;;4.89;53.98;95586.50;5111701;28;20192;-75
2022/01/14 07:53:18;;;;;;;11.13;7.30;;;;;;;4.99;54.16;95587.66;5110744;28;20181;-74
2022/01/14 07:55:46;;;;;;;14.70;7.97;;;;;;;5.09;54.30;95593.03;5110617;28;20223;-73
2022/01/14 07:58:15;;;;;;;10.10;7.40;;;;;;;5.18;54.66;95597.63;5111852;28;20197;-75
2022/01/14 08:00:43;;;;;;;9.90;6.97;;;;;;;5.29;54.64;95586.91;5118175;28;20188;-74
2022/01/14 08:03:10;;;;;;;12.03;7.07;;;;;;;5.39;54.79;95579.59;5120955;28;20200;-76
2022/01/14 08:05:37;;;;;;;8.87;6.83;;;;;;;5.49;54.82;95573.13;5115363;28;20197;-74
2022/01/14 08:08:07;;;;;;;10.93;6.63;;;;;;;5.50;54.87;95559.53;5112419;28;20204;-75
2022/01/14 08:10:34;;;;;;;10.93;7.07;;;;;;;5.57;54.80;95545.63;5110875;28;20234;-75
2022/01/14 08:13:01;;;;;;;9.53;6.67;;;;;;;5.64;55.00;95531.66;5111280;28;20666;-79
2022/01/14 08:15:30;;;;;;;11.13;6.90;;;;;;;5.81;54.68;95540.03;5111457;28;20204;-78
2022/01/14 08:17:59;;;;;;;10.20;6.60;;;;;;;6.07;54.66;95556.34;5112009;28;20204;-79
2022/01/14 08:20:25;;;;;;;10.87;7.07;;;;;;;5.97;54.57;95534.03;5108138;28;20554;-77
2022/01/14 08:22:52;;;;;;;10.90;6.43;;;;;;;6.06;54.34;95540.28;5111198;28;20221;-80
2022/01/14 08:25:19;;;;;;;9.13;6.60;;;;;;;6.38;54.34;95568.06;5110051;28;20192;-75
2022/01/14 08:27:46;;;;;;;8.30;5.60;;;;;;;6.46;54.30;95556.53;5111231;28;20181;-76
2022/01/14 08:30:13;;;;;;;8.23;5.80;;;;;;;6.54;54.25;95559.44;5110600;28;20593;-74
2022/01/14 08:32:42;;;;;;;6.27;5.43;;;;;;;6.62;54.28;95561.53;5111036;28;20688;-77
2022/01/14 08:35:09;;;;;;;8.40;6.23;;;;;;;6.71;54.30;95555.88;5110971;28;20189;-77
2022/01/14 08:37:39;;;;;;;7.57;5.90;;;;;;;6.82;54.27;95551.88;5110368;28;20188;-76
2022/01/14 08:40:07;;;;;;;9.27;6.70;;;;;;;6.93;53.97;95552.84;5111509;28;20197;-78
2022/01/14 08:42:34;;;;;;;7.17;5.93;;;;;;;7.05;54.07;95543.66;5110630;28;20761;-75
2022/01/14 08:45:01;;;;;;;8.50;6.27;;;;;;;7.04;53.91;95516.59;5110534;28;20203;-76
2022/01/14 08:47:28;;;;;;;6.40;5.17;;;;;;;7.26;53.84;95544.84;5110568;28;20196;-76
2022/01/14 08:49:56;;;;;;;8.87;5.97;;;;;;;7.38;53.74;95550.06;5110746;28;20201;-77
2022/01/14 08:52:23;;;;;;;6.97;5.63;;;;;;;7.43;53.71;95545.53;5110052;28;20185;-77
2022/01/14 08:54:50;;;;;;;7.90;5.20;;;;;;;7.58;53.27;95546.28;5111071;28;20189;-76
2022/01/14 08:57:18;;;;;;;6.83;5.67;;;;;;;7.70;53.43;95545.47;5110347;28;20220;-76
2022/01/14 08:59:45;;;;;;;6.50;5.67;;;;;;;7.77;53.27;95533.97;5110512;28;20276;-75
2022/01/14 09:02:12;;;;;;;7.17;5.77;;;;;;;7.98;53.08;95536.84;5110098;28;20277;-76
2022/01/14 09:04:38;;;;;;;7.30;5.30;;;;;;;7.98;52.98;95517.28;5109617;28;20233;-75
2022/01/14 09:07:15;;;;;;;8.03;5.83;;;;;;;8.23;52.72;95541.94;5110153;28;20200;-75
2022/01/14 09:09:42;;;;;;;8.40;6.20;;;;;;;8.26;52.77;95528.19;5108647;28;20196;-77
2022/01/14 09:12:14;;;;;;;7.97;5.63;;;;;;;8.33;52.81;95521.75;5110088;28;20616;-79
2022/01/14 09:14:40;;;;;;;5.63;5.00;;;;;;;8.49;52.37;95540.22;5108919;28;20854;-75
2022/01/14 09:17:07;;;;;;;10.00;5.80;;;;;;;8.54;52.20;95532.25;5108508;28;20200;-77
2022/01/14 09:19:35;;;;;;;7.53;5.83;;;;;;;8.59;52.27;95530.22;5108564;28;20188;-77
2022/01/14 09:22:02;;;;;;;7.47;5.83;;;;;;;8.57;51.91;95516.75;5108682;28;20255;-77
2022/01/14 09:24:30;;;;;;;8.50;5.87;;;;;;;8.73;51.82;95514.78;5105858;28;20226;-78
2022/01/14 09:26:57;;;;;;;9.73;6.30;;;;;;;8.79;51.50;95499.06;5109151;28;20192;-77
2022/01/14 09:29:23;;;;;;;8.83;5.53;;;;;;;8.94;51.37;95506.59;5108387;28;20193;-79
2022/01/14 09:31:50;;;;;;;6.60;5.40;;;;;;;9.02;51.12;95497.47;5106092;28;20185;-79
2022/01/14 09:34:20;;;;;;;7.03;5.53;;;;;;;9.03;51.14;95485.53;5107820;28;20173;-78
2022/01/14 09:36:47;;;;;;;7.17;6.00;;;;;;;9.02;51.32;95476.22;5107610;28;20685;-78
2022/01/14 09:39:14;;;;;;;7.57;5.60;;;;;;;9.17;50.85;95489.63;5108790;28;20174;-78
2022/01/14 09:41:42;;;;;;;8.53;5.40;;;;;;;9.19;50.98;95475.00;5109330;28;20185;-78
2022/01/14 09:44:09;;;;;;;6.93;5.70;;;;;;;9.10;50.87;95462.91;5105872;28;20189;-77
2022/01/14 09:46:36;;;;;;;11.60;5.20;;;;;;;9.16;50.57;95465.06;5108885;28;20181;-76
2022/01/14 09:49:03;;;;;;;8.23;5.60;;;;;;;9.43;50.58;95487.75;5109173;28;20181;-74
2022/01/14 09:51:30;;;;;;;7.63;6.30;;;;;;;9.43;50.52;95469.91;5108880;28;20313;-79
2022/01/14 09:53:57;;;;;;;7.50;5.27;;;;;;;9.54;50.20;95464.81;5108543;28;20665;-77
2022/01/14 09:56:25;;;;;;;6.00;4.60;;;;;;;9.60;50.31;95453.34;5108993;28;20278;-79
2022/01/14 09:58:53;;;;;;;7.00;5.37;;;;;;;9.66;50.13;95447.78;5109129;28;20584;-76
2022/01/14 10:01:23;;;;;;;5.47;4.40;;;;;;;9.44;50.11;95400.84;5107276;28;20192;-76
2022/01/14 10:03:55;;;;;;;6.13;4.70;;;;;;;9.76;50.15;95435.97;5108096;28;20254;-73
2022/01/14 10:06:36;;;;;;;5.43;4.83;;;;;;;9.79;49.81;95428.88;5107830;28;20185;-78
2022/01/14 10:09:07;;;;;;;4.73;4.13;;;;;;;9.88;49.94;95426.56;5107578;28;20188;-77
2022/01/14 10:11:35;;;;;;;5.20;4.67;;;;;;;9.92;49.73;95421.09;5105228;28;20734;-75
2022/01/14 10:14:07;;;;;;;9.47;5.23;;;;;;;10.01;49.47;95419.59;5107345;28;20189;-76
2022/01/14 10:16:34;;;;;;;6.90;5.57;;;;;;;10.11;49.22;95417.16;5105202;28;20208;-74
2022/01/14 10:19:01;;;;;;;6.07;5.47;;;;;;;10.17;49.31;95403.91;5107913;28;20197;-79
2022/01/14 10:21:33;;;;;;;6.43;5.67;;;;;;;10.34;49.21;95410.31;5110840;28;20207;-80
2022/01/14 10:24:00;;;;;;;6.27;5.17;;;;;;;10.46;48.91;95405.06;5109556;28;20239;-79
2022/01/14 10:26:30;;;;;;;6.10;5.00;;;;;;;10.57;49.14;95409.31;5112782;28;20181;-80
2022/01/14 10:29:02;;;;;;;7.50;5.30;;;;;;;10.66;48.81;95403.50;5109676;28;20242;-79
2022/01/14 10:31:35;;;;;;;10.60;4.80;;;;;;;10.60;48.72;95372.47;5117227;28;20196;-80
2022/01/14 10:34:11;;;;;;;8.27;5.10;;;;;;;10.88;48.40;95389.00;5117190;28;20205;-77
2022/01/14 10:36:38;;;;;;;6.50;4.70;;;;;;;10.93;48.18;95377.47;5112433;28;20239;-78
2022/01/14 10:39:19;;;;;;;5.27;4.77;;;;;;;11.02;47.80;95370.81;5112936;28;20195;-78
2022/01/14 10:41:47;;;;;;;5.53;4.37;;;;;;;11.23;47.88;95404.13;5111109;28;20185;-77
2022/01/14 10:44:28;;;;;;;5.83;4.87;;;;;;;11.32;47.56;95384.63;5111472;28;20234;-74
2022/01/14 10:47:13;;;;;;;5.40;4.60;;;;;;;11.33;47.16;95378.56;5109310;28;20668;-76
2022/01/14 10:49:40;;;;;;;6.23;4.63;;;;;;;11.41;47.01;95371.88;5109032;28;20189;-74
2022/01/14 10:52:13;;;;;;;8.50;4.30;;;;;;;11.46;46.96;95369.75;5111504;27;20197;-78
2022/01/14 10:54:41;;;;;;;9.97;5.00;;;;;;;11.53;47.01;95367.50;5109364;28;20177;-77
2022/01/14 10:57:19;;;;;;;5.73;5.17;;;;;;;11.60;46.39;95362.66;5111833;28;20205;-77
2022/01/14 10:59:48;;;;;;;5.50;4.73;;;;;;;11.47;46.50;95324.44;5109965;28;20224;-78
2022/01/14 11:02:36;;;;;;;6.13;4.70;;;;;;;11.69;46.15;95347.34;5108536;28;20178;-78
2022/01/14 11:05:13;;;;;;;7.00;5.30;;;;;;;11.67;46.19;95340.72;5111386;28;20185;-78
2022/01/14 11:07:41;;;;;;;5.80;4.67;;;;;;;11.70;46.23;95341.28;5109010;28;20245;-76
2022/01/14 11:10:18;;;;;;;7.87;5.23;;;;;;;11.70;46.15;95325.09;5111496;28;20208;-74
2022/01/14 11:12:46;;;;;;;6.40;4.40;;;;;;;11.75;45.92;95336.59;5109683;28;20188;-79
2022/01/14 11:15:13;;;;;;;6.07;4.97;;;;;;;11.73;45.95;95323.06;5111066;28;20196;-79
2022/01/14 11:17:47;;;;;;;7.07;4.80;;;;;;;11.52;45.90;95289.00;5111178;28;20205;-77
2022/01/14 11:20:15;;;;;;;6.50;5.30;;;;;;;11.70;45.98;95320.78;5111229;28;20173;-77
2022/01/14 11:25:29;;;;;;;7.27;5.10;;;;;;;11.56;45.84;95287.81;5112244;28;20278;-81
2022/01/14 11:28:00;;;;;;;7.00;4.70;;;;;;;11.46;46.10;95300.59;5112344;28;20200;-79
2022/01/14 11:30:34;;;;;;;6.00;4.97;;;;;;;11.45;46.29;95287.94;5111938;28;20181;-77
2022/01/14 11:33:03;;;;;;;7.20;5.30;;;;;;;11.43;45.99;95292.34;5109267;28;20196;-77
2022/01/14 11:35:31;;;;;;;6.43;4.67;;;;;;;11.39;46.14;95286.66;5110266;28;20665;-77
2022/01/14 11:37:59;;;;;;;5.17;4.67;;;;;;;11.30;45.96;95264.38;5111260;28;20219;-75
2022/01/14 11:40:27;;;;;;;5.10;4.07;;;;;;;11.28;46.24;95261.16;5110396;28;20211;-74
2022/01/14 11:42:58;;;;;;;6.13;4.73;;;;;;;11.32;46.20;95277.88;5110618;28;20197;-77
2022/01/14 11:45:53;;;;;;;5.23;4.23;;;;;;;11.29;45.99;95262.78;5111369;28;20185;-78
2022/01/14 11:48:38;;;;;;;6.73;4.63;;;;;;;11.23;46.18;95253.88;5110602;28;20225;-78
2022/01/14 11:51:06;;;;;;;6.90;4.50;;;;;;;11.19;46.13;95249.13;5103927;28;20640;-78
2022/01/14 11:53:43;;;;;;;8.20;4.53;;;;;;;11.18;46.20;95256.00;5110673;28;20182;-78